Madisonville, Louisiana
Current Conditions -  °F | °C
As of 7:15 AM on Thursday 27 Nov 2014 (Local Time) from KHDC Reporting Station
Clear Clear  
Wind Chill: 37°   Ceiling: Unl
Heat Index: 41°   Visibility: 10mi
Dew Point: 37°   Wind: 6mph
Humidity: 87%   Direction: 360°N
Pressure: 30.44"   Gusts: NA
Location:  30.4°N, 90.16°W
Report Text: KHDC 271315Z AUTO 36005KT 10SM CLR 05/03 A3044 RMK AO2
Loading
Personal Weather Stations






























Interactive Weather Map New forecast layout! Learn more

10-Day Weather Forecast

Advertisements
Track Severe Weather on mobile